createdAt,value
2023-05-19T00:01:31.840Z,62.12
2023-05-19T00:06:37.123Z,61.23
2023-05-19T00:11:41.678Z,60.88
2023-05-19T00:16:45.810Z,60.32
2023-05-19T00:21:49.889Z,59.99
2023-05-19T00:26:54.132Z,59.37
2023-05-19T00:31:58.119Z,58.40
2023-05-19T00:37:02.311Z,58.14
2023-05-19T00:42:06.529Z,57.41
2023-05-19T00:47:10.714Z,56.86
2023-05-19T00:52:14.886Z,56.58
2023-05-19T00:57:19.038Z,55.59
2023-05-19T01:02:23.362Z,55.17
2023-05-19T01:07:29.023Z,54.30
2023-05-19T01:12:33.119Z,53.62
2023-05-19T01:18:08.158Z,53.00
2023-05-19T01:23:24.898Z,52.38
2023-05-19T01:29:07.597Z,51.96
2023-05-19T01:34:14.134Z,51.18
2023-05-19T01:39:18.307Z,50.00
2023-05-19T01:44:25.193Z,48.73
2023-05-19T01:49:29.159Z,48.74
2023-05-19T01:54:33.396Z,47.72
2023-05-19T01:59:58.688Z,47.49
2023-05-19T02:05:42.769Z,46.87
2023-05-19T02:10:52.903Z,45.54
2023-05-19T02:16:04.996Z,44.63
2023-05-19T02:21:13.946Z,43.54
2023-05-19T02:26:17.899Z,43.55
2023-05-19T02:31:22.221Z,41.88
2023-05-19T02:36:27.230Z,41.14
2023-05-19T02:41:32.554Z,40.60
2023-05-19T02:46:36.896Z,38.67
2023-05-19T02:51:41.187Z,38.80
2023-05-19T02:56:45.241Z,37.13
2023-05-19T03:01:49.306Z,35.77
2023-05-19T03:06:55.223Z,35.49
2023-05-19T03:12:05.082Z,35.03
2023-05-19T03:17:09.032Z,35.08
2023-05-19T03:22:13.428Z,35.10
2023-05-19T03:27:17.463Z,35.66
2023-05-19T03:38:22.277Z,35.18
2023-05-19T03:43:32.798Z,35.05
2023-05-19T03:48:42.081Z,33.53
2023-05-19T04:00:40.403Z,33.92
2023-05-19T04:06:03.804Z,33.08
2023-05-19T04:11:09.130Z,33.01
2023-05-19T04:16:13.381Z,33.27
2023-05-19T04:21:18.359Z,32.37
2023-05-19T04:26:23.384Z,32.54
2023-05-19T04:31:29.496Z,33.22
2023-05-19T04:36:34.585Z,32.63
2023-05-19T04:41:40.988Z,33.08
2023-05-19T04:46:46.205Z,32.17
2023-05-19T04:51:54.093Z,31.86
2023-05-19T04:57:05.033Z,31.34
2023-05-19T05:02:12.861Z,32.57
2023-05-19T05:07:17.021Z,31.84
2023-05-19T05:18:58.696Z,32.27
2023-05-19T05:24:04.345Z,31.97
2023-05-19T05:29:11.241Z,32.08
2023-05-19T05:34:16.827Z,31.80
2023-05-19T05:39:21.408Z,31.98
2023-05-19T05:44:27.481Z,32.70
2023-05-19T05:49:33.429Z,32.38
2023-05-19T05:54:37.858Z,33.36
2023-05-19T05:59:42.610Z,33.81
2023-05-19T06:04:46.689Z,33.44
2023-05-19T06:09:51.224Z,34.18
2023-05-19T06:14:56.142Z,33.98
2023-05-19T06:20:26.132Z,34.04
2023-05-19T06:25:31.230Z,32.90
2023-05-19T06:30:35.622Z,33.03
2023-05-19T06:35:51.076Z,33.79
2023-05-19T06:40:55.536Z,34.02
2023-05-19T06:45:59.673Z,34.74
2023-05-19T06:51:03.652Z,34.77
2023-05-19T06:56:47.183Z,34.26
2023-05-19T07:01:52.204Z,34.13
2023-05-19T07:06:56.341Z,34.23
2023-05-19T07:12:02.248Z,34.06
2023-05-19T07:17:07.359Z,34.25
2023-05-19T07:22:14.448Z,34.08
2023-05-19T07:27:18.507Z,34.06
2023-05-19T07:32:22.752Z,34.17
2023-05-19T07:37:27.060Z,33.82
2023-05-19T07:42:31.372Z,33.74
2023-05-19T07:47:35.588Z,33.92
2023-05-19T07:52:39.493Z,34.65
2023-05-19T07:57:43.510Z,35.12
2023-05-19T08:02:47.997Z,34.34
2023-05-19T08:07:52.157Z,34.33
2023-05-19T08:12:56.480Z,32.66
2023-05-19T08:18:00.618Z,33.66
2023-05-19T08:23:04.976Z,33.02
2023-05-19T08:28:08.968Z,33.63
2023-05-19T08:33:13.220Z,33.97
2023-05-19T08:38:17.257Z,34.57
2023-05-19T08:43:21.997Z,34.17
2023-05-19T08:48:28.724Z,34.25
2023-05-19T08:53:39.044Z,33.46
2023-05-19T08:58:45.068Z,33.43
2023-05-19T09:03:50.532Z,34.67
2023-05-19T09:08:54.912Z,34.35
2023-05-19T09:13:58.839Z,34.40
2023-05-19T09:19:03.296Z,35.00
2023-05-19T09:24:09.050Z,34.52
2023-05-19T09:29:17.930Z,33.87
2023-05-19T09:34:23.264Z,34.06
2023-05-19T09:39:29.316Z,34.64
2023-05-19T09:44:36.859Z,33.90
2023-05-19T09:49:48.505Z,34.21
2023-05-19T09:54:52.712Z,34.47
2023-05-19T09:59:58.516Z,34.09
2023-05-19T10:05:05.467Z,33.25
2023-05-19T10:10:13.578Z,32.74
2023-05-19T10:15:21.419Z,32.78
2023-05-19T10:20:28.995Z,32.93
2023-05-19T10:25:35.379Z,32.74
2023-05-19T10:30:45.965Z,31.69
2023-05-19T10:36:11.793Z,31.04
2023-05-19T10:41:36.515Z,31.33
2023-05-19T10:46:44.290Z,31.87
2023-05-19T10:51:48.167Z,31.72
2023-05-19T10:56:57.497Z,31.12
2023-05-19T11:02:09.255Z,31.50
2023-05-19T11:07:21.449Z,30.80
2023-05-19T11:12:25.660Z,30.89
2023-05-19T11:17:30.542Z,30.36
2023-05-19T11:22:36.764Z,30.38
2023-05-19T11:27:41.040Z,30.65
2023-05-19T11:32:48.507Z,29.95
2023-05-19T11:37:55.587Z,30.54
2023-05-19T11:43:02.628Z,30.29
2023-05-19T11:48:07.783Z,30.44
2023-05-19T11:53:20.463Z,30.36
2023-05-19T11:58:28.701Z,30.96
2023-05-19T12:03:33.822Z,30.21
2023-05-19T12:08:38.100Z,30.85
2023-05-19T12:13:42.308Z,30.89
2023-05-19T12:18:46.415Z,30.89
2023-05-19T12:23:50.580Z,30.52
2023-05-19T12:28:54.688Z,30.41
2023-05-19T12:33:58.663Z,30.30
2023-05-19T12:39:02.702Z,30.35
2023-05-19T12:44:16.550Z,29.37
2023-05-19T12:49:20.591Z,30.21
2023-05-19T12:54:24.955Z,30.24
2023-05-19T12:59:38.440Z,30.69
2023-05-19T13:04:43.310Z,30.59
2023-05-19T13:09:47.444Z,30.89
2023-05-19T13:14:52.949Z,30.56
2023-05-19T13:19:59.986Z,30.86
2023-05-19T13:25:04.154Z,31.24
2023-05-19T13:30:08.657Z,31.54
2023-05-19T13:35:14.453Z,31.76
2023-05-19T13:40:18.545Z,32.11
2023-05-19T13:45:24.346Z,31.92
2023-05-19T13:50:28.411Z,31.79
2023-05-19T13:55:32.958Z,32.07
2023-05-19T14:00:37.264Z,32.37
2023-05-19T14:05:41.292Z,32.45
2023-05-19T14:10:48.723Z,32.46
2023-05-19T14:15:52.769Z,32.78
2023-05-19T14:20:57.038Z,33.32
2023-05-19T14:32:20.040Z,35.07
2023-05-19T14:37:24.099Z,35.75
2023-05-19T14:42:28.043Z,37.10
2023-05-19T14:47:32.172Z,37.16
2023-05-19T14:52:36.283Z,38.14
2023-05-19T14:57:40.383Z,38.45
2023-05-19T15:02:44.879Z,39.14
2023-05-19T15:07:48.889Z,39.90
2023-05-19T15:12:53.074Z,40.91
2023-05-19T15:17:56.929Z,41.21
2023-05-19T15:23:01.061Z,41.73
2023-05-19T15:28:05.547Z,41.81
2023-05-19T15:33:09.724Z,42.56
2023-05-19T15:38:13.823Z,42.86
2023-05-19T15:43:18.331Z,43.48
2023-05-19T15:48:22.536Z,43.75
2023-05-19T15:53:27.320Z,44.26
2023-05-19T15:58:31.346Z,44.88
2023-05-19T16:03:35.696Z,45.60
2023-05-19T16:08:39.952Z,45.85
2023-05-19T16:13:44.250Z,46.22
2023-05-19T16:18:48.245Z,46.88
2023-05-19T16:23:52.335Z,47.47
2023-05-19T16:28:57.481Z,48.14
2023-05-19T16:34:01.468Z,49.07
2023-05-19T16:39:05.657Z,49.94
2023-05-19T16:44:09.538Z,50.12
2023-05-19T16:49:13.804Z,50.27
2023-05-19T16:54:17.725Z,50.91
2023-05-19T16:59:21.757Z,51.72
2023-05-19T17:04:27.500Z,51.74
2023-05-19T17:09:32.767Z,52.29
2023-05-19T17:14:36.932Z,52.31
2023-05-19T17:19:41.054Z,53.01
2023-05-19T17:24:45.208Z,53.34
2023-05-19T17:29:49.264Z,53.18
2023-05-19T17:34:53.344Z,54.39
2023-05-19T17:39:57.172Z,54.16
2023-05-19T17:45:01.618Z,55.08
2023-05-19T17:50:07.428Z,55.65
2023-05-19T17:55:12.944Z,56.30
2023-05-19T18:00:17.368Z,56.87
2023-05-19T18:05:21.860Z,57.08
2023-05-19T18:10:28.604Z,57.89
2023-05-19T18:15:32.635Z,57.99
2023-05-19T18:20:38.902Z,57.97
2023-05-19T18:25:51.088Z,58.43
2023-05-19T18:31:02.469Z,59.12
2023-05-19T18:36:07.161Z,59.27
2023-05-19T18:41:11.356Z,58.94
2023-05-19T18:46:15.581Z,59.11
2023-05-19T18:51:20.524Z,59.37
2023-05-19T18:56:28.649Z,59.47
2023-05-19T19:01:32.615Z,59.59
2023-05-19T19:06:36.997Z,60.29
2023-05-19T19:11:41.634Z,60.22
2023-05-19T19:16:45.949Z,60.66
2023-05-19T19:21:50.049Z,60.89
2023-05-19T19:26:54.109Z,61.22
2023-05-19T19:31:58.040Z,61.64
2023-05-19T19:37:02.272Z,61.69
2023-05-19T19:42:06.661Z,62.12
2023-05-19T19:47:10.882Z,62.41
2023-05-19T19:52:15.069Z,62.77
2023-05-19T19:57:19.019Z,62.31
2023-05-19T20:02:23.358Z,62.97
2023-05-19T20:07:27.755Z,62.93
2023-05-19T20:12:32.137Z,63.35
2023-05-19T20:17:36.410Z,63.12
2023-05-19T20:22:40.714Z,63.67
2023-05-19T20:27:44.789Z,63.41
2023-05-19T20:32:49.222Z,64.02
2023-05-19T20:37:53.392Z,63.91
2023-05-19T20:42:57.898Z,64.17
2023-05-19T20:48:03.670Z,64.54
2023-05-19T20:53:08.206Z,64.41
2023-05-19T20:58:12.049Z,64.69
2023-05-19T21:03:16.479Z,64.90
2023-05-19T21:08:20.459Z,64.89
2023-05-19T21:13:24.607Z,65.32
2023-05-19T21:18:29.356Z,65.58
2023-05-19T21:23:33.331Z,65.27
2023-05-19T21:28:37.458Z,65.86
2023-05-19T21:33:41.270Z,65.55
2023-05-19T21:38:45.535Z,65.72
2023-05-19T21:43:49.353Z,66.26
2023-05-19T21:48:53.436Z,66.14
2023-05-19T21:53:57.503Z,66.24
2023-05-19T21:59:01.548Z,66.29
2023-05-19T22:04:06.231Z,65.85
2023-05-19T22:09:10.301Z,66.21
2023-05-19T22:14:14.565Z,66.11
2023-05-19T22:19:18.714Z,66.68
2023-05-19T22:24:23.050Z,66.22
2023-05-19T22:29:27.050Z,66.77
2023-05-19T22:34:31.048Z,66.49
2023-05-19T22:39:36.403Z,66.50
2023-05-19T22:44:40.351Z,66.51
2023-05-19T22:49:44.453Z,66.92
2023-05-19T22:54:48.304Z,66.68
2023-05-19T22:59:52.253Z,66.47
2023-05-19T23:04:56.502Z,66.10
2023-05-19T23:10:00.556Z,65.95
2023-05-19T23:15:06.362Z,65.55
2023-05-19T23:20:13.487Z,65.05
2023-05-19T23:25:17.797Z,64.69
2023-05-19T23:30:21.723Z,64.40
2023-05-19T23:35:25.810Z,64.02
2023-05-19T23:40:29.896Z,63.34
2023-05-19T23:45:34.505Z,63.19
2023-05-19T23:50:38.839Z,61.76
2023-05-19T23:55:43.955Z,61.40
